Time;durP1;ratioP1;P1;durP2;ratioP2;P2;SDS_P1;SDS_P2;PMS_P1;PMS_P2;Temp;Humidity;BMP_temperature;BMP_pressure;BME280_temperature;BME280_humidity;BME280_pressure;Samples;Min_cycle;Max_cycle;Signal;HPM_P1;HPM_P2
2021/08/26 00:07:49;;;;;;;1.65;0.90;;;18.00;78.50;;;;;;5050426;28;20044;-81
2021/08/26 00:10:17;;;;;;;1.60;1.00;;;18.00;78.50;;;;;;5049481;28;20029;-81
2021/08/26 00:12:42;;;;;;;1.27;0.68;;;17.90;78.50;;;;;;5047606;28;20017;-83
2021/08/26 00:15:09;;;;;;;1.35;0.80;;;17.90;78.60;;;;;;5050348;28;20522;-83
2021/08/26 00:17:35;;;;;;;1.45;0.80;;;17.90;78.60;;;;;;5048328;28;20021;-83
2021/08/26 00:20:01;;;;;;;1.10;0.70;;;18.00;78.50;;;;;;5047658;28;20025;-82
2021/08/26 00:22:26;;;;;;;1.00;0.90;;;18.00;78.50;;;;;;5042762;28;20048;-83
2021/08/26 00:24:52;;;;;;;1.50;0.90;;;17.90;78.60;;;;;;5046321;28;20033;-83
2021/08/26 00:27:18;;;;;;;2.17;0.90;;;17.90;78.60;;;;;;5047837;28;20020;-82
2021/08/26 00:29:43;;;;;;;3.55;1.13;;;17.90;79.40;;;;;;5043409;28;20025;-83
2021/08/26 00:32:09;;;;;;;1.95;1.13;;;17.90;78.90;;;;;;5041808;28;20108;-84
2021/08/26 00:34:34;;;;;;;2.33;1.20;;;17.90;78.90;;;;;;5050471;28;20461;-83
2021/08/26 00:37:00;;;;;;;1.92;1.00;;;17.80;79.00;;;;;;5048955;28;20024;-82
2021/08/26 00:39:25;;;;;;;2.00;1.10;;;17.80;79.00;;;;;;5042801;28;20014;-82
2021/08/26 00:41:51;;;;;;;1.88;1.00;;;17.80;79.10;;;;;;5049428;28;20377;-82
2021/08/26 00:44:18;;;;;;;1.80;0.80;;;17.80;79.00;;;;;;5045744;28;20523;-82
2021/08/26 00:46:47;;;;;;;1.85;1.10;;;17.80;79.00;;;;;;5045106;28;20116;-83
2021/08/26 00:49:13;;;;;;;0.82;0.82;;;17.80;79.60;;;;;;5044380;28;20028;-83
2021/08/26 00:51:39;;;;;;;2.65;1.20;;;17.80;79.00;;;;;;5047215;28;20029;-83
2021/08/26 00:54:06;;;;;;;1.98;0.98;;;17.70;79.00;;;;;;5042103;28;20023;-83
2021/08/26 00:56:31;;;;;;;2.22;0.95;;;17.80;79.00;;;;;;5049279;28;20025;-83
2021/08/26 00:58:59;;;;;;;1.55;1.02;;;17.80;79.00;;;;;;5048125;28;20036;-82
2021/08/26 01:01:28;;;;;;;1.20;0.80;;;17.80;79.10;;;;;;5047887;28;20491;-83
2021/08/26 01:04:15;;;;;;;1.17;0.90;;;17.80;79.00;;;;;;5051885;28;20132;-83
2021/08/26 01:07:09;;;;;;;1.23;0.90;;;17.80;79.00;;;;;;5049199;28;20032;-83
2021/08/26 01:09:49;;;;;;;1.70;0.93;;;17.80;78.90;;;;;;5050871;28;20029;-83
2021/08/26 01:12:19;;;;;;;1.65;0.90;;;17.90;78.90;;;;;;5049693;28;20033;-83
2021/08/26 01:14:45;;;;;;;1.80;0.98;;;17.90;78.80;;;;;;5052586;28;20478;-83
2021/08/26 01:17:21;;;;;;;1.25;0.80;;;17.90;78.70;;;;;;5041963;28;20052;-82
2021/08/26 01:19:51;;;;;;;1.98;1.10;;;17.90;78.70;;;;;;5046446;28;20063;-83
2021/08/26 01:22:18;;;;;;;2.80;1.00;;;17.90;78.70;;;;;;5043857;28;20582;-83
2021/08/26 01:24:49;;;;;;;1.25;1.00;;;17.80;78.70;;;;;;5044463;28;20791;-83
2021/08/26 01:27:16;;;;;;;2.80;0.90;;;17.80;78.70;;;;;;5053518;28;20090;-82
2021/08/26 01:29:42;;;;;;;1.50;0.90;;;17.80;78.70;;;;;;5050695;28;20013;-82
2021/08/26 01:32:08;;;;;;;3.60;1.20;;;17.80;78.60;;;;;;5051565;28;20115;-82
2021/08/26 01:34:34;;;;;;;5.60;1.30;;;17.80;78.60;;;;;;5051589;28;20117;-82
2021/08/26 01:37:00;;;;;;;3.17;1.38;;;17.80;78.60;;;;;;5052618;28;20058;-82
2021/08/26 01:39:25;;;;;;;4.20;1.20;;;17.80;78.60;;;;;;5048655;28;20032;-83
2021/08/26 01:41:53;;;;;;;2.53;1.20;;;17.70;78.50;;;;;;5052380;28;20036;-82
2021/08/26 01:44:27;;;;;;;2.47;1.10;;;17.70;78.40;;;;;;5047105;28;20477;-83
2021/08/26 01:46:56;;;;;;;2.50;1.17;;;17.60;78.30;;;;;;5051055;28;20025;-83
2021/08/26 01:49:22;;;;;;;3.90;1.25;;;17.70;78.20;;;;;;5049051;28;20052;-81
2021/08/26 01:51:48;;;;;;;2.22;1.20;;;17.60;78.00;;;;;;5050715;28;20419;-82
2021/08/26 01:54:13;;;;;;;2.88;1.10;;;17.60;78.00;;;;;;5050086;28;20021;-83
2021/08/26 01:56:39;;;;;;;4.47;1.50;;;17.60;77.90;;;;;;5040479;28;20060;-82
2021/08/26 01:59:05;;;;;;;3.10;1.23;;;17.60;77.80;;;;;;5052642;28;20109;-83
2021/08/26 02:01:31;;;;;;;3.67;1.30;;;17.60;77.80;;;;;;5050850;28;20033;-83
2021/08/26 02:03:56;;;;;;;6.07;1.65;;;17.60;77.70;;;;;;5051239;28;20529;-85
2021/08/26 02:06:22;;;;;;;3.65;1.40;;;17.60;77.70;;;;;;5050356;28;20025;-84
2021/08/26 02:08:47;;;;;;;4.22;1.40;;;17.50;77.60;;;;;;5045183;28;20029;-83
2021/08/26 02:11:13;;;;;;;3.30;1.38;;;17.50;77.60;;;;;;5045874;28;20438;-84
2021/08/26 02:13:38;;;;;;;4.47;1.65;;;17.40;77.60;;;;;;5051080;28;20032;-85
2021/08/26 02:16:05;;;;;;;3.85;1.42;;;17.30;77.50;;;;;;5046140;28;20029;-85
2021/08/26 02:18:31;;;;;;;3.70;1.60;;;17.30;77.50;;;;;;5045745;28;20510;-82
2021/08/26 02:20:56;;;;;;;3.22;1.42;;;17.30;77.40;;;;;;5052642;28;20045;-83
2021/08/26 02:23:22;;;;;;;4.78;1.75;;;17.30;77.40;;;;;;5051086;28;20029;-87
2021/08/26 02:25:47;;;;;;;3.90;1.52;;;17.20;77.40;;;;;;5049382;28;20063;-83
2021/08/26 02:28:13;;;;;;;3.45;1.40;;;17.30;77.30;;;;;;5043824;28;20055;-83
2021/08/26 02:30:39;;;;;;;4.88;1.60;;;17.30;77.30;;;;;;5049027;28;20021;-83
2021/08/26 02:33:04;;;;;;;4.80;1.60;;;17.20;77.10;;;;;;5041252;28;20060;-83
2021/08/26 02:35:30;;;;;;;4.85;1.70;;;17.20;77.20;;;;;;5052229;28;20041;-83
2021/08/26 02:37:55;;;;;;;4.10;1.70;;;17.20;77.20;;;;;;5046333;28;20037;-82
2021/08/26 02:40:21;;;;;;;4.60;1.70;;;17.20;77.20;;;;;;5047741;28;20035;-81
2021/08/26 02:42:46;;;;;;;4.47;1.70;;;17.20;77.20;;;;;;5045996;28;20041;-82
2021/08/26 02:45:12;;;;;;;5.82;1.67;;;17.20;77.10;;;;;;5039258;28;20021;-82
2021/08/26 02:47:38;;;;;;;5.07;1.60;;;17.20;77.00;;;;;;5047891;28;20396;-82
2021/08/26 02:50:04;;;;;;;5.38;1.50;;;17.20;76.90;;;;;;5050278;28;20028;-83
2021/08/26 02:52:29;;;;;;;3.35;1.38;;;17.20;76.90;;;;;;5051049;28;20496;-82
2021/08/26 02:54:55;;;;;;;3.58;1.20;;;17.20;76.90;;;;;;5050702;28;20060;-82
2021/08/26 02:57:20;;;;;;;4.25;1.67;;;17.30;76.80;;;;;;5049760;28;20028;-82
2021/08/26 02:59:46;;;;;;;4.03;1.52;;;17.20;76.80;;;;;;5050128;28;20391;-82
2021/08/26 03:02:11;;;;;;;6.38;1.92;;;17.20;76.80;;;;;;5048948;28;20495;-83
2021/08/26 03:04:37;;;;;;;3.40;1.60;;;17.20;76.70;;;;;;5051376;28;20044;-83
2021/08/26 03:07:03;;;;;;;5.97;1.80;;;17.10;76.70;;;;;;5050614;28;20035;-83
2021/08/26 03:09:29;;;;;;;4.53;1.85;;;17.10;76.70;;;;;;5050094;28;20074;-82
2021/08/26 03:11:54;;;;;;;6.38;2.03;;;17.10;76.60;;;;;;5045199;28;20509;-81
2021/08/26 03:14:20;;;;;;;2.92;1.30;;;17.20;76.60;;;;;;5050122;28;20058;-84
2021/08/26 03:16:45;;;;;;;6.95;2.20;;;17.10;76.50;;;;;;5050238;28;20025;-83
2021/08/26 03:19:11;;;;;;;4.88;1.63;;;17.10;76.50;;;;;;5038522;28;20036;-83
2021/08/26 03:21:37;;;;;;;4.68;1.80;;;17.10;76.50;;;;;;5051168;28;20104;-82
2021/08/26 03:24:04;;;;;;;6.10;1.92;;;17.10;76.50;;;;;;5048836;28;20051;-82
2021/08/26 03:26:29;;;;;;;5.82;2.38;;;17.00;76.50;;;;;;5045314;28;20024;-83
2021/08/26 03:28:55;;;;;;;6.10;2.25;;;16.90;76.70;;;;;;5040360;28;20156;-83
2021/08/26 03:31:20;;;;;;;7.68;2.22;;;16.90;76.90;;;;;;5047757;28;20037;-83
2021/08/26 03:33:46;;;;;;;7.03;2.15;;;16.80;76.90;;;;;;5051643;28;20025;-82
2021/08/26 03:36:12;;;;;;;4.78;1.73;;;16.80;76.90;;;;;;5045984;28;20039;-83
2021/08/26 03:38:38;;;;;;;6.07;1.98;;;16.80;76.90;;;;;;5048679;28;20047;-82
2021/08/26 03:41:04;;;;;;;4.00;1.83;;;16.80;77.00;;;;;;5040014;28;20034;-83
2021/08/26 03:43:30;;;;;;;4.18;1.80;;;16.80;77.00;;;;;;5046416;28;20482;-83
2021/08/26 03:45:55;;;;;;;5.95;1.90;;;16.80;77.00;;;;;;5046615;28;20502;-83
2021/08/26 03:48:21;;;;;;;5.90;1.80;;;16.80;77.00;;;;;;5049514;28;20068;-84
2021/08/26 03:50:46;;;;;;;4.97;1.55;;;16.80;76.90;;;;;;5049153;28;20541;-83
2021/08/26 03:53:12;;;;;;;5.07;2.10;;;16.90;76.90;;;;;;5047049;28;20025;-83
2021/08/26 03:55:37;;;;;;;5.63;1.90;;;16.90;76.90;;;;;;5042015;28;20033;-82
2021/08/26 03:58:03;;;;;;;5.47;1.83;;;16.90;76.90;;;;;;5048024;28;20017;-83
2021/08/26 04:00:28;;;;;;;5.40;1.77;;;16.90;76.90;;;;;;5047760;28;20033;-82
2021/08/26 04:02:54;;;;;;;3.65;1.60;;;16.90;76.90;;;;;;5049277;28;20104;-81
2021/08/26 04:05:19;;;;;;;2.97;1.58;;;16.90;76.90;;;;;;5047257;28;20021;-84
2021/08/26 04:07:45;;;;;;;6.30;1.83;;;16.90;76.90;;;;;;5039156;28;20044;-82
2021/08/26 04:10:11;;;;;;;5.35;2.03;;;17.00;76.90;;;;;;5043889;28;20036;-82
2021/08/26 04:12:36;;;;;;;4.70;1.90;;;16.90;76.80;;;;;;5047074;28;20024;-81
2021/08/26 04:15:02;;;;;;;4.50;1.85;;;16.90;76.80;;;;;;5048380;28;20491;-81
2021/08/26 04:17:27;;;;;;;4.15;1.70;;;16.90;76.80;;;;;;5044097;28;20040;-81
2021/08/26 04:19:53;;;;;;;4.22;1.48;;;16.90;76.90;;;;;;5039169;28;20033;-80
2021/08/26 04:22:18;;;;;;;7.25;1.90;;;16.90;76.90;;;;;;5051064;28;20045;-82
2021/08/26 04:24:44;;;;;;;5.40;1.60;;;16.90;76.90;;;;;;5043006;28;20021;-82
2021/08/26 04:27:09;;;;;;;5.28;1.90;;;16.90;76.90;;;;;;5037466;28;20061;-81
2021/08/26 04:29:35;;;;;;;4.78;1.63;;;16.90;76.90;;;;;;5049058;28;20116;-82
2021/08/26 04:32:01;;;;;;;7.53;1.90;;;16.90;76.90;;;;;;5044942;28;20070;-81
2021/08/26 04:34:27;;;;;;;3.03;1.40;;;16.90;76.80;;;;;;5038712;28;20537;-81
2021/08/26 04:36:52;;;;;;;3.97;1.60;;;16.90;76.70;;;;;;5047549;28;20078;-80
2021/08/26 04:39:18;;;;;;;6.45;1.67;;;16.90;76.60;;;;;;5048632;28;20487;-81
2021/08/26 04:41:43;;;;;;;5.32;1.80;;;16.90;76.50;;;;;;5045483;28;20131;-82
2021/08/26 04:44:09;;;;;;;3.78;1.42;;;16.90;76.50;;;;;;5046359;28;20056;-81
2021/08/26 04:46:34;;;;;;;6.85;1.58;;;16.80;76.60;;;;;;5033467;28;20029;-81
2021/08/26 04:49:00;;;;;;;3.53;1.45;;;16.80;76.70;;;;;;5044056;28;20044;-82
2021/08/26 04:51:26;;;;;;;5.43;1.83;;;16.80;76.60;;;;;;5046979;28;20376;-82
2021/08/26 04:53:51;;;;;;;5.13;1.67;;;16.80;76.60;;;;;;5040774;28;20021;-81
2021/08/26 04:56:17;;;;;;;4.13;1.60;;;16.80;76.70;;;;;;5046477;28;20193;-81
2021/08/26 04:58:42;;;;;;;4.47;1.55;;;16.70;76.60;;;;;;5041359;28;20112;-80
2021/08/26 05:01:08;;;;;;;3.92;1.40;;;16.80;76.70;;;;;;5048308;28;20041;-81
2021/08/26 05:03:33;;;;;;;7.40;1.65;;;16.80;76.60;;;;;;5040791;28;20556;-81
2021/08/26 05:06:02;;;;;;;4.90;1.60;;;16.80;76.60;;;;;;5043004;28;20029;-82
2021/08/26 05:08:28;;;;;;;5.35;1.95;;;16.80;76.70;;;;;;5040599;28;20449;-77
2021/08/26 05:10:53;;;;;;;5.43;1.48;;;16.70;76.50;;;;;;5047219;28;20057;-79
2021/08/26 05:13:19;;;;;;;4.60;1.60;;;16.70;76.50;;;;;;5044357;28;20025;-79
2021/08/26 05:15:44;;;;;;;4.75;1.33;;;16.70;76.50;;;;;;5048425;28;20491;-78
2021/08/26 05:18:10;;;;;;;5.15;1.80;;;16.70;76.60;;;;;;5033144;28;20021;-83
2021/08/26 05:20:35;;;;;;;3.58;1.52;;;16.60;76.90;;;;;;5035219;28;20814;-78
2021/08/26 05:23:04;;;;;;;4.15;1.42;;;16.60;76.90;;;;;;5045279;28;20030;-80
2021/08/26 05:25:30;;;;;;;4.75;1.65;;;16.60;76.80;;;;;;5032414;28;20075;-77
2021/08/26 05:27:55;;;;;;;4.13;1.42;;;16.60;76.80;;;;;;5044230;28;20064;-78
2021/08/26 05:30:21;;;;;;;4.47;1.60;;;16.70;76.80;;;;;;5039709;28;20494;-77
2021/08/26 05:32:46;;;;;;;5.30;2.03;;;16.70;76.80;;;;;;5037435;28;20033;-79
2021/08/26 05:35:12;;;;;;;5.25;1.30;;;16.60;76.80;;;;;;5047716;28;20033;-78
2021/08/26 05:37:38;;;;;;;4.55;1.40;;;16.70;76.70;;;;;;5040355;28;20137;-77
2021/08/26 05:40:05;;;;;;;5.68;1.70;;;16.80;76.60;;;;;;5039877;28;20029;-78
2021/08/26 05:42:30;;;;;;;4.90;1.30;;;16.80;76.50;;;;;;5043660;28;20395;-77
2021/08/26 05:44:56;;;;;;;4.07;1.15;;;16.90;76.50;;;;;;5044235;28;20040;-78
2021/08/26 05:47:21;;;;;;;5.45;1.40;;;16.90;76.90;;;;;;5045447;28;20107;-78
2021/08/26 05:49:46;;;;;;;4.32;1.52;;;16.90;76.10;;;;;;5049289;28;20036;-78
2021/08/26 05:52:12;;;;;;;3.95;1.60;;;17.00;76.10;;;;;;5052044;28;20021;-77
2021/08/26 05:54:37;;;;;;;4.93;1.80;;;17.00;75.90;;;;;;5049357;28;20523;-78
2021/08/26 05:57:03;;;;;;;5.10;1.52;;;17.00;75.90;;;;;;5049284;28;20116;-77
2021/08/26 05:59:29;;;;;;;5.45;1.67;;;17.00;75.90;;;;;;5040532;28;20022;-77
2021/08/26 06:01:55;;;;;;;2.58;1.20;;;17.00;75.90;;;;;;5044259;28;20041;-77
2021/08/26 06:04:21;;;;;;;3.33;1.33;;;17.00;75.80;;;;;;5042138;28;20440;-77
2021/08/26 06:06:46;;;;;;;5.20;1.40;;;17.20;75.40;;;;;;5050690;28;20127;-77
2021/08/26 06:09:12;;;;;;;2.55;1.17;;;17.30;75.10;;;;;;5044974;28;20021;-77
2021/08/26 06:11:37;;;;;;;4.85;1.48;;;17.40;74.90;;;;;;5046002;28;20296;-77
2021/08/26 06:14:03;;;;;;;7.18;1.70;;;17.30;75.50;;;;;;5050347;28;20029;-77
2021/08/26 06:16:29;;;;;;;5.22;1.40;;;17.30;75.10;;;;;;5042362;28;20085;-77
2021/08/26 06:18:54;;;;;;;4.40;1.35;;;17.20;75.00;;;;;;5047617;28;20057;-77
2021/08/26 06:21:20;;;;;;;4.15;1.20;;;17.20;75.00;;;;;;5041699;28;20131;-79
2021/08/26 06:23:45;;;;;;;4.05;1.30;;;17.20;75.10;;;;;;5040411;28;20030;-78
2021/08/26 06:26:11;;;;;;;3.03;1.13;;;17.20;75.10;;;;;;5050954;28;20029;-79
2021/08/26 06:28:36;;;;;;;5.13;1.35;;;17.10;75.20;;;;;;5046790;28;20017;-78
2021/08/26 06:31:02;;;;;;;4.35;1.38;;;17.10;75.40;;;;;;5052819;28;20067;-77
2021/08/26 06:33:28;;;;;;;4.90;1.48;;;17.20;76.00;;;;;;5049121;28;20176;-78
2021/08/26 06:35:53;;;;;;;4.18;1.20;;;17.20;75.30;;;;;;5050338;28;20036;-77
2021/08/26 06:38:19;;;;;;;4.30;1.27;;;17.20;75.30;;;;;;5051280;28;20021;-77
2021/08/26 06:40:45;;;;;;;3.88;1.30;;;17.40;75.00;;;;;;5052453;28;20032;-77
2021/08/26 06:43:11;;;;;;;3.58;1.30;;;17.40;74.90;;;;;;5052582;28;20021;-77
2021/08/26 06:45:36;;;;;;;4.80;1.40;;;17.60;74.70;;;;;;5049065;28;20044;-78
2021/08/26 06:48:02;;;;;;;3.55;1.40;;;18.00;74.30;;;;;;5050200;28;20395;-77
2021/08/26 06:50:28;;;;;;;3.42;1.08;;;18.40;72.60;;;;;;5047021;28;20053;-77
2021/08/26 06:52:53;;;;;;;6.07;1.50;;;18.40;72.20;;;;;;5047617;28;20025;-78
2021/08/26 06:55:19;;;;;;;7.85;1.50;;;18.20;72.40;;;;;;5049136;28;20048;-77
2021/08/26 06:57:45;;;;;;;6.18;1.52;;;18.00;72.80;;;;;;5044359;28;20029;-79
2021/08/26 07:00:11;;;;;;;4.57;1.20;;;17.80;73.20;;;;;;5044789;28;20025;-76
2021/08/26 07:02:36;;;;;;;5.00;1.50;;;17.70;73.40;;;;;;5041221;28;20060;-77
2021/08/26 07:05:02;;;;;;;3.85;1.17;;;17.50;73.80;;;;;;5047696;28;20044;-78
2021/08/26 07:07:28;;;;;;;3.75;1.10;;;17.40;74.30;;;;;;5039950;28;20025;-78
2021/08/26 07:09:53;;;;;;;4.90;1.27;;;17.40;74.50;;;;;;5050824;28;20047;-77
2021/08/26 07:12:19;;;;;;;4.28;1.40;;;17.30;74.70;;;;;;5043891;28;20064;-78
2021/08/26 07:14:45;;;;;;;4.40;1.42;;;17.70;74.80;;;;;;5043594;28;20033;-77
2021/08/26 07:17:10;;;;;;;4.53;1.40;;;18.50;72.80;;;;;;5034511;28;20021;-77
2021/08/26 07:19:36;;;;;;;3.40;1.33;;;18.90;71.20;;;;;;5040179;28;20028;-77
2021/08/26 07:22:01;;;;;;;3.83;1.38;;;19.00;70.30;;;;;;5046649;28;20053;-78
2021/08/26 07:24:27;;;;;;;3.20;1.20;;;19.00;70.10;;;;;;5045346;28;20032;-78
2021/08/26 07:26:52;;;;;;;2.97;1.10;;;19.20;69.40;;;;;;5039935;28;20033;-78
2021/08/26 07:29:18;;;;;;;2.80;1.17;;;19.00;69.70;;;;;;5038156;28;20029;-77
2021/08/26 07:31:45;;;;;;;3.28;1.02;;;18.90;69.80;;;;;;5041613;28;20056;-77
2021/08/26 07:34:11;;;;;;;3.35;1.25;;;18.80;70.50;;;;;;5040933;28;20021;-77
2021/08/26 07:36:37;;;;;;;4.00;1.17;;;18.70;70.30;;;;;;5040581;28;20541;-77
2021/08/26 07:39:03;;;;;;;3.42;1.30;;;18.40;70.80;;;;;;5043243;28;20041;-77
2021/08/26 07:41:30;;;;;;;3.33;1.27;;;18.20;71.80;;;;;;5035154;28;20037;-77
2021/08/26 07:43:56;;;;;;;3.20;1.50;;;17.90;72.80;;;;;;5038283;28;20375;-77
2021/08/26 07:46:22;;;;;;;2.97;1.20;;;17.70;73.60;;;;;;5042872;28;20021;-77
2021/08/26 07:48:48;;;;;;;3.63;1.40;;;17.60;74.10;;;;;;5045076;28;20078;-78
2021/08/26 07:51:13;;;;;;;4.00;1.35;;;17.50;74.80;;;;;;5042504;28;20029;-78
2021/08/26 07:53:39;;;;;;;4.68;1.40;;;17.50;75.10;;;;;;5044994;28;20025;-78
2021/08/26 07:56:04;;;;;;;3.45;1.23;;;17.60;75.30;;;;;;5038909;28;20040;-77
2021/08/26 07:58:31;;;;;;;3.60;1.30;;;17.60;75.30;;;;;;5042586;28;20056;-78
2021/08/26 08:00:58;;;;;;;4.50;1.40;;;17.60;75.40;;;;;;5040187;28;20056;-78
2021/08/26 08:03:23;;;;;;;3.25;1.75;;;18.00;75.30;;;;;;5042324;28;20032;-77
2021/08/26 08:05:49;;;;;;;4.93;1.75;;;18.40;74.10;;;;;;5039490;28;20022;-77
2021/08/26 08:08:14;;;;;;;4.25;1.40;;;19.10;72.60;;;;;;5038111;28;20441;-78
2021/08/26 08:10:40;;;;;;;2.88;1.33;;;20.10;70.20;;;;;;5040304;28;20518;-77
2021/08/26 08:13:05;;;;;;;2.67;1.10;;;21.40;67.20;;;;;;5037594;28;20403;-76
2021/08/26 08:15:31;;;;;;;4.38;1.40;;;21.90;64.70;;;;;;5039166;28;20052;-77
2021/08/26 08:17:57;;;;;;;5.53;1.85;;;22.60;63.30;;;;;;5033500;28;20071;-75
2021/08/26 08:20:23;;;;;;;4.10;1.50;;;21.60;63.80;;;;;;5043027;28;20032;-76
2021/08/26 08:22:49;;;;;;;4.30;1.40;;;20.60;66.40;;;;;;5036795;28;20029;-75
2021/08/26 08:25:14;;;;;;;2.65;1.30;;;19.90;68.70;;;;;;5037540;28;20028;-75
2021/08/26 08:27:40;;;;;;;4.45;1.33;;;19.60;70.10;;;;;;5036820;28;20080;-76
2021/08/26 08:30:06;;;;;;;6.15;1.52;;;19.40;70.60;;;;;;5039680;28;20542;-77
2021/08/26 08:32:32;;;;;;;3.47;1.50;;;19.10;71.10;;;;;;5046641;28;20041;-77
2021/08/26 08:34:58;;;;;;;2.85;1.20;;;19.00;71.80;;;;;;5045509;28;20044;-76
2021/08/26 08:37:23;;;;;;;4.65;1.30;;;18.90;72.20;;;;;;5044996;28;20033;-78
2021/08/26 08:39:49;;;;;;;4.40;1.40;;;18.90;72.30;;;;;;5039021;28;20029;-77
2021/08/26 08:42:14;;;;;;;3.22;1.15;;;18.80;72.40;;;;;;5041753;28;21370;-78
2021/08/26 08:44:40;;;;;;;3.38;0.90;;;18.80;72.40;;;;;;5040844;28;20029;-76
2021/08/26 08:47:10;;;;;;;2.97;1.00;;;18.70;72.50;;;;;;5041536;28;20029;-78
2021/08/26 08:49:38;;;;;;;3.60;1.23;;;18.70;72.50;;;;;;5036671;28;20115;-76
2021/08/26 08:52:04;;;;;;;4.30;1.40;;;18.70;72.50;;;;;;5038881;28;20364;-76
2021/08/26 08:54:30;;;;;;;3.88;1.40;;;18.80;72.40;;;;;;5036779;28;20037;-78
2021/08/26 08:56:55;;;;;;;4.97;1.05;;;19.10;71.90;;;;;;5035302;28;20676;-77
2021/08/26 08:59:21;;;;;;;3.58;1.20;;;19.40;71.40;;;;;;5040985;28;20025;-77
2021/08/26 09:01:53;;;;;;;3.50;1.27;;;19.40;71.00;;;;;;5038798;28;20045;-76
2021/08/26 09:04:23;;;;;;;3.15;1.20;;;19.40;70.90;;;;;;5040942;28;20097;-75
2021/08/26 09:06:50;;;;;;;3.03;1.40;;;19.50;70.90;;;;;;5043844;28;20052;-77
2021/08/26 09:09:17;;;;;;;3.45;1.58;;;19.60;70.70;;;;;;5042238;28;20046;-77
2021/08/26 09:11:56;;;;;;;4.03;1.10;;;19.60;70.60;;;;;;5038839;28;20102;-77
2021/08/26 09:14:28;;;;;;;2.65;1.20;;;19.60;70.60;;;;;;5047567;28;20031;-78
2021/08/26 09:16:55;;;;;;;2.78;1.25;;;19.50;70.80;;;;;;5038458;28;20034;-76
2021/08/26 09:19:33;;;;;;;3.50;1.45;;;19.30;71.00;;;;;;5042537;28;20391;-75
2021/08/26 09:22:04;;;;;;;3.35;1.35;;;19.10;71.40;;;;;;5043938;28;20562;-79
2021/08/26 09:24:46;;;;;;;2.97;1.20;;;19.10;71.80;;;;;;5049221;28;20025;-79
2021/08/26 09:27:35;;;;;;;4.45;1.50;;;19.10;72.00;;;;;;5044917;28;20045;-76
2021/08/26 09:30:13;;;;;;;3.50;1.25;;;19.10;72.30;;;;;;5052327;28;20082;-76
2021/08/26 09:33:09;;;;;;;3.70;1.23;;;19.10;72.50;;;;;;5049369;28;20116;-78
2021/08/26 09:35:36;;;;;;;3.08;1.48;;;19.10;72.30;;;;;;5048646;28;20037;-76
2021/08/26 09:38:03;;;;;;;3.60;1.48;;;19.10;73.00;;;;;;5047657;28;20060;-78
2021/08/26 09:40:32;;;;;;;5.35;2.00;;;19.10;72.40;;;;;;5049171;28;20036;-76
2021/08/26 09:43:06;;;;;;;5.07;1.60;;;19.10;72.20;;;;;;5049122;28;20131;-77
2021/08/26 09:45:47;;;;;;;6.15;1.60;;;19.00;72.20;;;;;;5046541;28;20032;-76
2021/08/26 09:48:15;;;;;;;5.10;1.60;;;18.80;72.60;;;;;;5052563;28;20037;-78
2021/08/26 09:50:47;;;;;;;3.97;1.80;;;18.70;72.90;;;;;;5052170;28;20057;-77
2021/08/26 09:53:15;;;;;;;2.80;1.60;;;18.60;73.30;;;;;;5050325;28;20025;-76
2021/08/26 09:55:50;;;;;;;3.03;1.33;;;18.50;73.60;;;;;;5041126;28;20029;-76
2021/08/26 09:58:27;;;;;;;4.00;1.67;;;18.50;73.90;;;;;;5049103;28;20090;-76
2021/08/26 10:01:18;;;;;;;2.95;1.50;;;18.40;74.30;;;;;;5049360;28;20054;-75
2021/08/26 10:03:44;;;;;;;2.15;1.48;;;18.40;74.40;;;;;;5045828;28;20025;-76
2021/08/26 10:06:12;;;;;;;5.65;1.60;;;18.40;74.40;;;;;;5049073;28;20087;-75
2021/08/26 10:08:40;;;;;;;3.75;1.40;;;18.50;74.40;;;;;;5049678;28;20025;-75
2021/08/26 10:11:08;;;;;;;4.40;1.52;;;18.60;74.30;;;;;;5045723;28;20036;-75
2021/08/26 10:13:34;;;;;;;4.10;1.60;;;18.70;74.10;;;;;;5051983;28;20029;-75
2021/08/26 10:16:00;;;;;;;6.05;1.70;;;18.90;73.90;;;;;;5046881;28;20029;-74
2021/08/26 10:18:28;;;;;;;4.43;1.50;;;18.80;73.70;;;;;;5046620;28;20017;-77
2021/08/26 10:20:54;;;;;;;4.45;1.70;;;18.90;73.60;;;;;;5045873;28;20021;-77
2021/08/26 10:23:20;;;;;;;4.93;1.60;;;18.90;73.50;;;;;;5045471;28;20035;-77
2021/08/26 10:25:48;;;;;;;2.55;1.30;;;18.90;73.60;;;;;;5040118;28;20053;-76
2021/08/26 10:28:15;;;;;;;3.75;1.70;;;19.00;73.50;;;;;;5044586;28;20057;-77
2021/08/26 10:30:41;;;;;;;4.25;1.50;;;19.20;73.30;;;;;;5045146;28;20070;-77
2021/08/26 10:33:12;;;;;;;1.92;1.23;;;19.20;72.80;;;;;;5043050;28;20036;-77
2021/08/26 10:35:50;;;;;;;3.17;1.30;;;19.40;72.60;;;;;;5038932;28;20416;-77
2021/08/26 10:38:29;;;;;;;5.13;1.60;;;19.50;72.20;;;;;;5042603;28;20044;-77
2021/08/26 10:40:57;;;;;;;4.32;1.70;;;19.50;71.60;;;;;;5044724;28;20071;-77
2021/08/26 10:43:37;;;;;;;5.78;1.85;;;19.50;71.50;;;;;;5047735;28;20055;-76
2021/08/26 10:46:08;;;;;;;3.85;1.55;;;19.50;71.40;;;;;;5043511;28;20539;-79
2021/08/26 10:48:35;;;;;;;5.40;1.58;;;19.60;71.10;;;;;;5044743;28;20033;-79
2021/08/26 10:51:17;;;;;;;7.13;2.05;;;19.60;70.90;;;;;;5043233;28;20028;-79
2021/08/26 10:53:45;;;;;;;5.25;1.73;;;19.60;70.60;;;;;;5046451;28;20061;-78
2021/08/26 10:56:26;;;;;;;6.88;2.10;;;19.60;70.60;;;;;;5044529;28;20063;-78
2021/08/26 10:58:56;;;;;;;3.85;1.70;;;19.70;70.50;;;;;;5044049;28;20381;-77
2021/08/26 11:01:28;;;;;;;5.20;2.00;;;19.80;70.40;;;;;;5044457;28;20039;-78
2021/08/26 11:04:06;;;;;;;4.53;1.57;;;19.90;70.20;;;;;;5041876;28;20025;-77
2021/08/26 11:06:37;;;;;;;3.72;1.45;;;20.00;70.00;;;;;;5041806;28;20287;-78
2021/08/26 11:09:11;;;;;;;4.38;1.88;;;20.10;69.80;;;;;;5046180;28;20021;-78
2021/08/26 11:11:40;;;;;;;5.57;2.40;;;20.10;69.50;;;;;;5044267;28;20091;-76
2021/08/26 11:14:06;;;;;;;5.50;1.88;;;20.10;68.90;;;;;;5044031;28;20017;-77
2021/08/26 11:16:45;;;;;;;6.32;1.85;;;20.20;68.80;;;;;;5042134;28;20071;-76
2021/08/26 11:19:11;;;;;;;7.13;2.20;;;20.30;68.80;;;;;;5045651;28;20067;-77
2021/08/26 11:21:45;;;;;;;5.80;1.77;;;20.50;68.40;;;;;;5046637;28;20037;-78
2021/08/26 11:24:33;;;;;;;5.32;1.98;;;20.50;68.20;;;;;;5049526;28;20024;-78
2021/08/26 11:27:06;;;;;;;5.40;1.98;;;20.50;68.20;;;;;;5044070;28;20039;-79
2021/08/26 11:29:36;;;;;;;5.25;2.10;;;20.40;68.10;;;;;;5049836;28;20023;-77
2021/08/26 11:32:03;;;;;;;4.65;1.77;;;20.40;68.10;;;;;;5046420;28;20107;-77
2021/08/26 11:34:38;;;;;;;4.03;1.55;;;20.40;68.10;;;;;;5042274;28;20031;-74
2021/08/26 11:37:10;;;;;;;4.47;1.80;;;20.50;67.90;;;;;;5042037;28;20349;-77
2021/08/26 11:39:38;;;;;;;5.50;2.00;;;20.60;67.60;;;;;;5041322;28;20039;-77
2021/08/26 11:42:11;;;;;;;5.88;2.25;;;20.60;66.90;;;;;;5042682;28;20120;-76
2021/08/26 11:44:37;;;;;;;5.47;2.00;;;20.60;66.40;;;;;;5045224;28;20127;-78
2021/08/26 11:47:03;;;;;;;3.88;1.90;;;20.70;66.30;;;;;;5041540;28;20104;-77
2021/08/26 11:49:47;;;;;;;4.65;2.10;;;20.80;66.40;;;;;;5041779;28;20030;-77
2021/08/26 11:52:17;;;;;;;5.45;1.90;;;20.90;66.40;;;;;;5045782;28;20446;-77
2021/08/26 11:54:46;;;;;;;5.82;1.90;;;21.00;66.20;;;;;;5046367;28;20074;-78
2021/08/26 11:57:13;;;;;;;4.93;1.90;;;21.00;65.80;;;;;;5041887;28;20025;-78
2021/08/26 11:59:41;;;;;;;4.50;1.92;;;21.10;65.80;;;;;;5041698;28;20033;-78
2021/08/26 12:02:24;;;;;;;6.32;2.03;;;21.20;65.90;;;;;;5044689;28;20029;-79
2021/08/26 12:04:53;;;;;;;4.10;1.77;;;21.40;65.50;;;;;;5041872;28;20021;-78
2021/08/26 12:07:46;;;;;;;4.45;1.77;;;21.50;65.30;;;;;;5042438;28;20025;-78
2021/08/26 12:10:43;;;;;;;3.88;1.80;;;21.50;65.10;;;;;;5043722;28;20029;-77
2021/08/26 12:13:12;;;;;;;3.78;1.55;;;21.50;65.10;;;;;;5041902;28;20032;-78
2021/08/26 12:15:45;;;;;;;4.95;2.00;;;21.60;65.20;;;;;;5046393;28;20021;-78
2021/08/26 12:18:22;;;;;;;5.78;2.30;;;21.60;65.10;;;;;;5044235;28;20030;-77
2021/08/26 12:20:54;;;;;;;5.07;2.00;;;21.50;64.30;;;;;;5048575;28;20017;-75
2021/08/26 12:23:19;;;;;;;;;;;21.50;64.00;;;;;;5045788;28;20147;-78
2021/08/26 12:26:03;;;;;;;5.50;1.90;;;21.50;64.00;;;;;;5038182;28;20332;-76
2021/08/26 12:28:34;;;;;;;5.93;2.05;;;21.50;63.70;;;;;;5044289;28;20139;-76
2021/08/26 12:31:00;;;;;;;6.07;2.20;;;21.60;63.60;;;;;;5054507;28;20025;-77
2021/08/26 12:33:25;;;;;;;5.00;2.05;;;21.70;63.60;;;;;;5041979;28;20025;-76
2021/08/26 12:35:56;;;;;;;7.35;2.90;;;21.90;63.30;;;;;;5039562;28;20029;-75
2021/08/26 12:38:42;;;;;;;6.10;2.35;;;22.10;62.80;;;;;;5044450;28;20020;-75
2021/08/26 12:41:13;;;;;;;5.60;2.13;;;22.30;62.00;;;;;;5042502;28;20091;-74
2021/08/26 12:43:58;;;;;;;6.53;2.37;;;22.50;61.60;;;;;;5045874;28;20033;-76
2021/08/26 12:46:29;;;;;;;3.75;1.75;;;22.70;61.30;;;;;;5046604;28;20321;-76
2021/08/26 12:49:08;;;;;;;6.40;1.98;;;22.60;60.60;;;;;;5044042;28;20692;-76
2021/08/26 12:51:35;;;;;;;4.82;2.00;;;22.50;60.50;;;;;;5047036;28;20028;-76
2021/08/26 12:54:01;;;;;;;2.92;1.50;;;22.70;60.60;;;;;;5047179;28;20037;-75
2021/08/26 12:56:27;;;;;;;4.47;2.00;;;22.80;60.00;;;;;;5043865;28;20094;-76
2021/08/26 12:59:03;;;;;;;4.85;1.70;;;22.90;59.30;;;;;;5045623;28;20035;-78